Pagina principale
METAR-TAF:

METAR-TAF

Aeroporti :

Aeroporto di Cuneo-Levaldigi

Cuneo, Italia

latitudine: 44-32-47N, longitudine: 007-37-20E, altezza: 386 m

Osservazione

Il bollettino è stato emesso 31 minuti fa, alle 07:50 UTC
Vento 3 kt da ovest
Temperature 1°C
Umidità 80%
Pressione 1018 hPa
Visibilità 10 km o più
nessuna nube inferiore a 1500 m e nessun cumulonembo

METAR: LIMZ 110750Z 26003KT CAVOK 01/M02 Q1018

Ora: 09:21 (08:21 UTC)

Previsione

Il bollettino è stato emesso 3 ore e 21 minuti fa, alle 05:00 UTC
Previsione valida dal 11 alle 06 UTC al 12 alle 06 UTC
Vento 5 kt da direzioni variabili
Visibilità 10 km o più
Nuvoloso ad un'altezza di 7000 ft
Temporaneamente
dal 11 alle 20 UTC al 12 alle 02 UTC
Visibilità: 4000 m
pioggia

TAF: LIMZ 110500Z 1106/1206 VRB05KT 9999 BKN070 TEMPO 1120/1202 4000 RA

Osservazioni e previsioni meteorologiche di più di 4000 aeroporti (messaggi METAR e TAF).

Le stazioni disponibili sono rappresentate dai dischi gialli e rossi sulla carta.

Puntare il mouse per vedere il nome della stazione.

Clicca sopra per visualizzare le osservazioni e previsioni meteorologiche.

Per cambiare la mappa : fare clic sui pulsanti verdi con una croce nera per ingrandire, il pulsante verde con un trattino per diminuire, o sulla freccia verde per le mappe adiacenti.


METAR-TAF: